createdAt,value
2019-01-05T00:00:28.684Z,74.26
2019-01-05T00:03:16.089Z,74.67
2019-01-05T00:06:19.946Z,75.09
2019-01-05T00:09:07.325Z,75.07
2019-01-05T00:12:08.469Z,74.31
2019-01-05T00:15:04.049Z,74.29
2019-01-05T00:17:59.645Z,73.84
2019-01-05T00:20:42.017Z,73.89
2019-01-05T00:23:49.748Z,73.75
2019-01-05T00:26:40.899Z,73.62
2019-01-05T00:29:45.272Z,74.15
2019-01-05T00:33:05.004Z,74.07
2019-01-05T00:36:15.525Z,74.62
2019-01-05T00:39:16.963Z,75.38
2019-01-05T00:42:06.850Z,75.79
2019-01-05T00:45:14.407Z,75.98
2019-01-05T00:48:02.301Z,76.36
2019-01-05T00:51:11.594Z,76.51
2019-01-05T00:54:01.135Z,76.67
2019-01-05T00:56:59.009Z,76.46
2019-01-05T01:00:01.108Z,76.29
2019-01-05T01:02:49.028Z,76.27
2019-01-05T01:05:43.847Z,77.00
2019-01-05T01:08:35.645Z,77.13
2019-01-05T01:11:34.891Z,76.59
2019-01-05T01:14:37.075Z,77.00
2019-01-05T01:17:40.982Z,77.47
2019-01-05T01:20:28.967Z,77.96
2019-01-05T01:23:12.828Z,78.30
2019-01-05T01:26:00.654Z,78.75
2019-01-05T01:28:48.432Z,78.97
2019-01-05T01:31:46.571Z,79.01
2019-01-05T01:34:47.945Z,78.75
2019-01-05T01:37:46.481Z,78.64
2019-01-05T01:40:43.535Z,78.85
2019-01-05T01:43:34.440Z,78.94
2019-01-05T01:46:32.601Z,78.82
2019-01-05T01:49:21.541Z,78.72
2019-01-05T01:52:11.134Z,78.88
2019-01-05T01:55:01.307Z,78.90
2019-01-05T01:57:52.049Z,78.64
2019-01-05T02:00:47.623Z,78.88
2019-01-05T02:03:54.451Z,78.83
2019-01-05T02:06:54.100Z,78.82
2019-01-05T02:09:42.340Z,78.61
2019-01-05T02:12:31.256Z,78.65
2019-01-05T02:15:21.404Z,78.49
2019-01-05T02:18:50.775Z,78.31
2019-01-05T02:22:18.737Z,78.06
2019-01-05T02:25:49.442Z,78.06
2019-01-05T02:29:11.236Z,78.05
2019-01-05T02:32:48.104Z,78.31
2019-01-05T02:36:10.799Z,78.34
2019-01-05T02:39:51.488Z,78.63
2019-01-05T02:43:41.849Z,78.69
2019-01-05T02:47:25.224Z,78.79
2019-01-05T02:50:59.981Z,78.91
2019-01-05T02:54:33.593Z,79.02
2019-01-05T02:57:40.097Z,79.26
2019-01-05T03:01:39.572Z,79.69
2019-01-05T03:05:31.612Z,79.79
2019-01-05T03:09:00.810Z,79.71
2019-01-05T03:12:25.467Z,79.74
2019-01-05T03:15:58.402Z,79.79
2019-01-05T03:19:31.091Z,79.68
2019-01-05T03:23:00.987Z,79.32
2019-01-05T03:26:40.094Z,79.47
2019-01-05T03:30:13.851Z,79.43
2019-01-05T03:33:44.170Z,79.45
2019-01-05T03:37:27.202Z,79.55
2019-01-05T03:41:08.922Z,79.43
2019-01-05T03:45:08.485Z,79.54
2019-01-05T03:48:52.193Z,79.52
2019-01-05T03:52:35.005Z,79.39
2019-01-05T03:56:01.357Z,79.28
2019-01-05T03:59:43.131Z,79.37
2019-01-05T04:02:49.608Z,79.40
2019-01-05T04:06:18.914Z,79.39
2019-01-05T04:09:57.245Z,79.26
2019-01-05T04:13:50.808Z,79.17
2019-01-05T04:17:31.802Z,79.13
2019-01-05T04:21:26.770Z,79.12
2019-01-05T04:25:02.661Z,79.13
2019-01-05T04:28:20.471Z,79.29
2019-01-05T04:32:08.224Z,79.47
2019-01-05T04:36:01.287Z,79.75
2019-01-05T04:39:26.333Z,79.83
2019-01-05T04:43:15.303Z,79.42
2019-01-05T04:46:50.728Z,79.32
2019-01-05T04:50:28.548Z,79.58
2019-01-05T04:53:54.622Z,80.00
2019-01-05T04:57:17.333Z,80.19
2019-01-05T05:00:47.258Z,80.13
2019-01-05T05:03:57.869Z,80.21
2019-01-05T05:07:25.717Z,80.24
2019-01-05T05:10:51.404Z,80.17
2019-01-05T05:14:14.398Z,80.15
2019-01-05T05:17:50.389Z,80.03
2019-01-05T05:21:14.206Z,80.03
2019-01-05T05:24:48.356Z,80.05
2019-01-05T05:28:27.999Z,80.00
2019-01-05T05:31:52.595Z,79.89
2019-01-05T05:35:38.457Z,79.73
2019-01-05T05:39:15.023Z,79.66
2019-01-05T05:42:50.826Z,79.35
2019-01-05T05:46:28.243Z,79.00
2019-01-05T05:50:03.654Z,78.92
2019-01-05T05:53:43.556Z,78.85
2019-01-05T05:57:13.601Z,78.43
2019-01-05T06:00:40.128Z,77.94
2019-01-05T06:04:29.211Z,77.62
2019-01-05T06:08:06.642Z,77.26
2019-01-05T06:11:56.888Z,76.58
2019-01-05T06:15:38.087Z,75.22
2019-01-05T06:19:05.929Z,75.07
2019-01-05T06:22:37.963Z,75.10
2019-01-05T06:25:59.803Z,75.08
2019-01-05T06:29:33.122Z,75.07
2019-01-05T06:32:49.996Z,74.42
2019-01-05T06:36:33.280Z,74.03
2019-01-05T06:40:03.604Z,73.04
2019-01-05T06:43:44.501Z,72.62
2019-01-05T06:47:11.264Z,71.85
2019-01-05T06:50:49.559Z,71.42
2019-01-05T06:54:17.874Z,70.80
2019-01-05T06:57:50.117Z,70.74
2019-01-05T07:01:45.409Z,70.24
2019-01-05T07:05:05.535Z,70.25
2019-01-05T07:08:29.412Z,70.21
2019-01-05T07:12:05.033Z,69.50
2019-01-05T07:15:36.155Z,69.63
2019-01-05T07:19:07.783Z,70.11
2019-01-05T07:22:20.463Z,70.07
2019-01-05T07:26:06.920Z,70.18
2019-01-05T07:29:22.883Z,69.72
2019-01-05T07:33:08.651Z,70.21
2019-01-05T07:37:05.367Z,70.29
2019-01-05T07:40:35.286Z,69.97
2019-01-05T07:44:04.703Z,69.91
2019-01-05T07:47:46.926Z,69.13
2019-01-05T07:51:22.174Z,68.35
2019-01-05T07:55:11.047Z,66.74
2019-01-05T07:58:20.074Z,66.70
2019-01-05T08:02:09.168Z,63.29
2019-01-05T08:05:23.093Z,64.41
2019-01-05T08:08:58.355Z,66.35
2019-01-05T08:12:39.872Z,65.91
2019-01-05T08:16:16.782Z,66.76
2019-01-05T08:19:36.606Z,65.88
2019-01-05T08:23:02.835Z,66.43
2019-01-05T08:26:28.114Z,66.57
2019-01-05T08:30:01.013Z,66.33
2019-01-05T08:33:27.715Z,66.34
2019-01-05T08:36:56.857Z,65.92
2019-01-05T08:40:37.195Z,65.60
2019-01-05T08:44:31.549Z,65.93
2019-01-05T08:48:30.830Z,66.17
2019-01-05T08:51:42.127Z,64.62
2019-01-05T08:55:05.549Z,64.35
2019-01-05T08:58:44.932Z,64.08
2019-01-05T09:02:08.697Z,64.51
2019-01-05T09:05:33.073Z,63.40
2019-01-05T09:09:02.908Z,62.78
2019-01-05T09:12:42.295Z,62.88
2019-01-05T09:16:19.165Z,62.16
2019-01-05T09:19:53.191Z,62.33
2019-01-05T09:23:29.554Z,61.68
2019-01-05T09:27:26.926Z,60.92
2019-01-05T09:31:01.544Z,59.31
2019-01-05T09:34:24.369Z,59.74
2019-01-05T09:37:58.689Z,59.20
2019-01-05T09:41:14.085Z,58.72
2019-01-05T09:44:48.533Z,57.88
2019-01-05T09:48:37.322Z,58.39
2019-01-05T09:52:10.246Z,58.58
2019-01-05T09:55:37.250Z,58.09
2019-01-05T09:59:17.486Z,58.83
2019-01-05T10:02:57.016Z,58.81
2019-01-05T10:06:09.725Z,58.62
2019-01-05T10:09:59.271Z,57.28
2019-01-05T10:13:54.674Z,58.44
2019-01-05T10:17:14.995Z,56.83
2019-01-05T10:20:46.028Z,57.20
2019-01-05T10:24:39.080Z,56.91
2019-01-05T10:28:11.129Z,55.90
2019-01-05T10:32:03.715Z,55.76
2019-01-05T10:35:40.717Z,53.76
2019-01-05T10:39:20.979Z,54.38
2019-01-05T10:43:00.348Z,53.75
2019-01-05T10:46:34.815Z,54.60
2019-01-05T10:49:57.572Z,54.24
2019-01-05T10:53:31.832Z,54.37
2019-01-05T10:56:46.572Z,53.41
2019-01-05T11:00:12.246Z,53.68
2019-01-05T11:03:42.053Z,53.40
2019-01-05T11:06:57.401Z,53.57
2019-01-05T11:10:55.867Z,54.51
2019-01-05T11:14:24.158Z,53.71
2019-01-05T11:18:02.961Z,53.10
2019-01-05T11:21:23.672Z,53.22
2019-01-05T11:25:01.345Z,52.74
2019-01-05T11:28:29.088Z,52.60
2019-01-05T11:31:56.705Z,53.24
2019-01-05T11:35:29.805Z,53.65
2019-01-05T11:39:07.005Z,52.55
2019-01-05T11:42:47.701Z,53.54
2019-01-05T11:46:16.109Z,53.98
2019-01-05T11:49:53.037Z,52.82
2019-01-05T11:53:39.039Z,52.26
2019-01-05T11:57:14.063Z,52.48
2019-01-05T12:00:49.767Z,53.27
2019-01-05T12:04:05.651Z,53.34
2019-01-05T12:07:47.378Z,52.66
2019-01-05T12:11:14.679Z,52.21
2019-01-05T12:14:28.323Z,51.81
2019-01-05T12:17:58.556Z,52.51
2019-01-05T12:21:34.913Z,54.35
2019-01-05T12:24:57.321Z,54.06
2019-01-05T12:28:40.441Z,52.63
2019-01-05T12:32:14.050Z,53.27
2019-01-05T12:35:58.328Z,54.12
2019-01-05T12:39:31.641Z,54.91
2019-01-05T12:43:11.188Z,54.44
2019-01-05T12:46:33.622Z,55.11
2019-01-05T12:49:59.892Z,55.88
2019-01-05T12:53:24.762Z,55.58
2019-01-05T12:57:03.092Z,55.35
2019-01-05T13:00:34.357Z,55.85
2019-01-05T13:04:03.143Z,56.49
2019-01-05T13:07:29.800Z,56.52
2019-01-05T13:11:01.813Z,55.92
2019-01-05T13:14:38.764Z,56.84
2019-01-05T13:17:54.656Z,56.19
2019-01-05T13:21:34.776Z,56.86
2019-01-05T13:25:24.298Z,57.30
2019-01-05T13:28:49.132Z,57.47
2019-01-05T13:32:32.251Z,56.83
2019-01-05T13:36:07.822Z,57.15
2019-01-05T13:39:45.388Z,57.54
2019-01-05T13:43:15.543Z,57.85
2019-01-05T13:47:01.166Z,57.02
2019-01-05T13:50:25.222Z,57.55
2019-01-05T13:53:46.417Z,57.56
2019-01-05T13:56:46.644Z,58.01
2019-01-05T13:59:34.174Z,57.84
2019-01-05T14:02:35.243Z,58.38
2019-01-05T14:05:43.019Z,58.73
2019-01-05T14:08:48.000Z,58.44
2019-01-05T14:11:45.602Z,58.21
2019-01-05T14:14:40.194Z,58.40
2019-01-05T14:17:28.996Z,58.30
2019-01-05T14:20:23.778Z,58.63
2019-01-05T14:23:11.716Z,58.60
2019-01-05T14:26:09.496Z,58.32
2019-01-05T14:29:04.771Z,58.29
2019-01-05T14:31:52.527Z,57.46
2019-01-05T14:34:51.755Z,57.19
2019-01-05T14:49:16.401Z,56.10
2019-01-05T14:52:20.261Z,57.22
2019-01-05T14:55:16.682Z,57.08
2019-01-05T14:58:23.809Z,56.80
2019-01-05T15:01:28.033Z,56.88
2019-01-05T15:04:16.696Z,56.52
2019-01-05T15:07:04.306Z,56.30
2019-01-05T15:09:52.997Z,57.25
2019-01-05T15:12:44.627Z,56.03
2019-01-05T15:15:30.688Z,56.59
2019-01-05T15:18:28.600Z,57.47
2019-01-05T15:21:35.572Z,57.81
2019-01-05T15:24:42.752Z,57.87
2019-01-05T15:27:49.613Z,57.81
2019-01-05T15:30:46.868Z,57.95
2019-01-05T15:33:35.331Z,57.79
2019-01-05T15:36:22.888Z,58.36
2019-01-05T15:39:24.066Z,59.33
2019-01-05T15:42:12.784Z,58.86
2019-01-05T15:45:07.849Z,59.13
2019-01-05T15:47:58.027Z,58.78
2019-01-05T15:50:55.727Z,58.33
2019-01-05T15:53:47.211Z,58.35
2019-01-05T15:56:35.945Z,59.08
2019-01-05T15:59:38.313Z,59.20
2019-01-05T16:02:25.710Z,58.14
2019-01-05T16:05:17.230Z,58.34
2019-01-05T16:08:21.033Z,58.75
2019-01-05T16:11:21.865Z,58.64
2019-01-05T16:14:09.969Z,59.70
2019-01-05T16:17:01.684Z,59.99
2019-01-05T16:19:56.186Z,60.70
2019-01-05T16:22:51.067Z,60.78
2019-01-05T16:25:38.318Z,61.42
2019-01-05T16:28:27.136Z,59.58
2019-01-05T16:31:21.728Z,60.93
2019-01-05T16:34:17.767Z,60.15
2019-01-05T16:37:05.109Z,59.53
2019-01-05T16:40:12.626Z,61.07
2019-01-05T16:43:06.449Z,60.49
2019-01-05T16:45:58.295Z,62.34
2019-01-05T16:48:45.445Z,64.31
2019-01-05T16:51:33.058Z,66.05
2019-01-05T16:54:20.382Z,67.39
2019-01-05T16:57:08.013Z,67.68
2019-01-05T16:59:56.666Z,65.95
2019-01-05T17:03:00.638Z,65.10
2019-01-05T17:05:53.647Z,65.92
2019-01-05T17:09:00.393Z,67.02
2019-01-05T17:12:03.923Z,69.46
2019-01-05T17:14:51.450Z,71.57
2019-01-05T17:17:30.954Z,73.78
2019-01-05T17:20:14.430Z,75.61
2019-01-05T17:23:02.198Z,76.76
2019-01-05T17:25:54.476Z,78.75
2019-01-05T17:28:49.936Z,79.50
2019-01-05T17:31:44.873Z,79.53
2019-01-05T17:34:36.204Z,79.26
2019-01-05T17:37:25.214Z,78.59
2019-01-05T17:40:22.717Z,78.11
2019-01-05T17:43:21.845Z,76.14
2019-01-05T17:46:19.947Z,72.57
2019-01-05T17:49:14.864Z,70.53
2019-01-05T17:52:15.810Z,69.46
2019-01-05T17:55:04.685Z,68.78
2019-01-05T17:57:52.252Z,66.31
2019-01-05T18:00:40.778Z,66.67
2019-01-05T18:03:38.121Z,66.92
2019-01-05T18:06:39.343Z,68.29
2019-01-05T18:09:31.282Z,68.24
2019-01-05T18:12:19.122Z,67.69
2019-01-05T18:15:20.042Z,66.49
2019-01-05T18:18:23.969Z,64.84
2019-01-05T18:21:18.622Z,62.68
2019-01-05T18:24:02.594Z,63.43
2019-01-05T18:26:57.773Z,62.49
2019-01-05T18:29:52.749Z,62.55
2019-01-05T18:32:44.251Z,61.75
2019-01-05T18:35:51.602Z,56.71
2019-01-05T18:38:39.117Z,53.15
2019-01-05T18:41:29.007Z,49.83
2019-01-05T18:44:29.909Z,48.91
2019-01-05T18:47:21.233Z,48.94
2019-01-05T18:50:13.706Z,49.68
2019-01-05T18:53:08.639Z,50.24
2019-01-05T18:56:00.400Z,50.20
2019-01-05T18:58:48.530Z,49.66
2019-01-05T19:01:38.977Z,49.32
2019-01-05T19:04:26.684Z,49.26
2019-01-05T19:07:24.391Z,49.05
2019-01-05T19:10:13.446Z,48.93
2019-01-05T19:13:00.756Z,48.47
2019-01-05T19:16:01.504Z,48.13
2019-01-05T19:19:02.130Z,48.30
2019-01-05T19:22:03.125Z,48.46
2019-01-05T19:24:51.853Z,48.42
2019-01-05T19:27:43.719Z,48.76
2019-01-05T19:30:32.394Z,48.52
2019-01-05T19:33:21.219Z,47.77
2019-01-05T19:36:15.914Z,46.51
2019-01-05T19:39:04.713Z,46.03
2019-01-05T19:42:08.609Z,45.79
2019-01-05T19:45:09.297Z,45.49
2019-01-05T19:47:56.546Z,45.44
2019-01-05T19:50:55.406Z,45.03
2019-01-05T19:53:44.281Z,44.90
2019-01-05T19:56:31.865Z,45.27
2019-01-05T19:59:19.429Z,45.95
2019-01-05T20:02:08.141Z,45.84
2019-01-05T20:05:09.879Z,46.50
2019-01-05T20:07:58.554Z,47.94
2019-01-05T20:10:53.319Z,47.83
2019-01-05T20:13:42.025Z,47.38
2019-01-05T20:16:29.604Z,46.97
2019-01-05T20:19:29.836Z,46.74
2019-01-05T20:22:24.417Z,45.89
2019-01-05T20:25:19.253Z,45.63
2019-01-05T20:28:10.952Z,45.89
2019-01-05T20:31:06.043Z,46.43
2019-01-05T20:33:54.731Z,46.56
2019-01-05T20:36:52.787Z,47.04
2019-01-05T20:39:37.545Z,48.16
2019-01-05T20:42:26.230Z,48.47
2019-01-05T20:45:14.956Z,48.60
2019-01-05T20:48:02.425Z,49.21
2019-01-05T20:50:50.917Z,49.82
2019-01-05T20:53:42.984Z,50.93
2019-01-05T20:56:33.629Z,51.28
2019-01-05T20:59:41.665Z,50.55
2019-01-05T21:02:37.825Z,49.93
2019-01-05T21:05:29.835Z,49.89
2019-01-05T21:08:18.697Z,50.08
2019-01-05T21:11:13.508Z,50.75
2019-01-05T21:14:08.277Z,51.45
2019-01-05T21:16:56.957Z,51.82
2019-01-05T21:19:52.859Z,51.48
2019-01-05T21:22:40.697Z,53.48
2019-01-05T21:25:29.810Z,56.31
2019-01-05T21:28:37.006Z,57.11
2019-01-05T21:31:24.674Z,58.52
2019-01-05T21:34:13.235Z,59.54
2019-01-05T21:37:05.934Z,60.06
2019-01-05T21:40:06.866Z,59.99
2019-01-05T21:43:07.471Z,58.33
2019-01-05T21:45:55.073Z,55.93
2019-01-05T21:48:42.365Z,54.49
2019-01-05T21:51:40.867Z,53.98
2019-01-05T21:54:37.198Z,53.82
2019-01-05T21:57:25.033Z,54.10
2019-01-05T22:00:12.582Z,54.59
2019-01-05T22:03:11.931Z,54.28
2019-01-05T22:06:03.486Z,55.13
2019-01-05T22:08:52.493Z,55.55
2019-01-05T22:11:44.140Z,57.80
2019-01-05T22:14:40.740Z,58.68
2019-01-05T22:17:28.456Z,58.21
2019-01-05T22:20:17.798Z,56.00
2019-01-05T22:23:09.063Z,55.20
2019-01-05T22:26:01.033Z,55.20
2019-01-05T22:28:49.760Z,55.12
2019-01-05T22:31:37.423Z,55.86
2019-01-05T22:34:34.951Z,55.75
2019-01-05T22:37:22.218Z,54.58
2019-01-05T22:40:22.881Z,53.24
2019-01-05T22:43:23.651Z,52.28
2019-01-05T22:46:12.320Z,52.51
2019-01-05T22:49:01.127Z,51.83
2019-01-05T22:51:51.977Z,51.55
2019-01-05T22:54:39.346Z,51.22
2019-01-05T22:57:34.054Z,51.30
2019-01-05T23:00:22.730Z,51.38
2019-01-05T23:03:10.156Z,51.45
2019-01-05T23:06:01.708Z,52.25
2019-01-05T23:09:05.741Z,51.68
2019-01-05T23:12:03.957Z,50.81
2019-01-05T23:14:51.416Z,50.46
2019-01-05T23:17:39.399Z,50.37
2019-01-05T23:20:26.517Z,50.16
2019-01-05T23:23:30.346Z,50.07
2019-01-05T23:26:21.565Z,50.07
2019-01-05T23:29:15.024Z,49.82
2019-01-05T23:32:01.698Z,49.63
2019-01-05T23:35:09.385Z,48.71
2019-01-05T23:37:56.775Z,48.19
2019-01-05T23:40:44.653Z,48.49
2019-01-05T23:43:45.738Z,48.40
2019-01-05T23:46:34.458Z,48.60
2019-01-05T23:49:23.171Z,48.64
2019-01-05T23:52:30.253Z,48.84
2019-01-05T23:55:17.939Z,48.74
2019-01-05T23:58:12.397Z,48.99
